Time;durP1;ratioP1;P1;durP2;ratioP2;P2;SDS_P1;SDS_P2;PMS_P1;PMS_P2;Temp;Humidity;BMP_temperature;BMP_pressure;BME280_temperature;BME280_humidity;BME280_pressure;Samples;Min_cycle;Max_cycle;Signal;HPM_P1;HPM_P2
2022/02/20 00:02:28;;;;;;;24.90;10.40;;;;;;;5.74;52.62;100625.38;126312;1096;104329;-81
2022/02/20 00:05:00;;;;;;;24.10;10.03;;;;;;;5.71;52.35;100626.92;126384;1096;104161;-81
2022/02/20 00:07:31;;;;;;;22.77;10.53;;;;;;;5.68;52.49;100629.34;126305;1096;104206;-81
2022/02/20 00:10:03;;;;;;;25.77;10.87;;;;;;;5.63;52.63;100636.89;126362;1099;104237;-81
2022/02/20 00:12:34;;;;;;;24.07;10.23;;;;;;;5.61;52.29;100638.52;126365;1099;104182;-81
2022/02/20 00:15:07;;;;;;;26.23;10.30;;;;;;;5.57;52.55;100637.42;126258;1099;104307;-81
2022/02/20 00:17:38;;;;;;;24.50;10.00;;;;;;;5.53;52.54;100642.36;126365;1096;104241;-81
2022/02/20 00:20:11;;;;;;;23.47;10.23;;;;;;;5.49;52.97;100640.41;126358;1096;104576;-81
2022/02/20 00:22:43;;;;;;;24.90;11.10;;;;;;;5.44;52.82;100642.73;126372;1096;104152;-82
2022/02/20 00:25:15;;;;;;;29.10;11.03;;;;;;;5.37;52.67;100646.66;126341;1099;104309;-81
2022/02/20 00:27:47;;;;;;;29.47;11.30;;;;;;;5.32;53.42;100650.71;126324;1096;104192;-80
2022/02/20 00:30:19;;;;;;;26.87;10.97;;;;;;;5.28;53.45;100655.64;126365;1099;104284;-81
2022/02/20 00:32:50;;;;;;;25.40;10.27;;;;;;;5.25;52.80;100663.27;126372;1099;104207;-81
2022/02/20 00:35:22;;;;;;;27.17;10.87;;;;;;;5.21;53.14;100657.87;126333;1099;104248;-82
2022/02/20 00:37:54;;;;;;;22.30;9.33;;;;;;;5.17;52.97;100661.13;126320;1096;104204;-81
2022/02/20 00:40:27;;;;;;;25.63;10.17;;;;;;;5.11;53.18;100654.63;126308;1096;104220;-82
2022/02/20 00:42:59;;;;;;;28.73;10.67;;;;;;;5.05;53.22;100670.79;126373;1096;104150;-81
2022/02/20 00:45:31;;;;;;;26.40;10.25;;;;;;;5.00;53.14;100666.98;126322;1096;104223;-80
2022/02/20 00:48:03;;;;;;;23.03;9.63;;;;;;;4.97;53.47;100667.72;126308;1096;104316;-80
2022/02/20 00:50:34;;;;;;;24.07;10.07;;;;;;;4.96;52.88;100670.23;126341;1099;104586;-80
2022/02/20 00:53:06;;;;;;;26.97;9.67;;;;;;;4.95;53.11;100674.51;126293;1099;104335;-82
2022/02/20 00:55:39;;;;;;;25.37;9.97;;;;;;;4.98;53.44;100679.02;126335;1099;104621;-81
2022/02/20 00:58:10;;;;;;;23.23;9.67;;;;;;;4.97;53.45;100680.73;126245;1096;104185;-80
2022/02/20 01:00:44;;;;;;;24.27;10.30;;;;;;;4.96;53.40;100686.72;126335;1096;102835;-80
2022/02/20 01:03:15;;;;;;;20.30;8.90;;;;;;;4.94;53.20;100683.14;126302;1099;104184;-82
2022/02/20 01:05:47;;;;;;;22.60;9.23;;;;;;;4.93;53.86;100690.84;126321;1096;104392;-82
2022/02/20 01:08:20;;;;;;;21.43;9.37;;;;;;;4.89;53.38;100688.84;126268;1099;104188;-82
2022/02/20 01:10:51;;;;;;;22.63;9.23;;;;;;;4.83;53.25;100679.88;126347;1097;104172;-81
2022/02/20 01:13:22;;;;;;;22.03;9.20;;;;;;;4.79;53.78;100687.39;126302;1099;104271;-82
2022/02/20 01:15:54;;;;;;;19.27;8.73;;;;;;;4.75;53.77;100687.99;126371;1099;104156;-81
2022/02/20 01:18:25;;;;;;;25.43;9.37;;;;;;;4.71;53.71;100684.31;126277;1096;104271;-81
2022/02/20 01:20:57;;;;;;;22.13;9.07;;;;;;;4.71;54.21;100681.72;126332;1096;104181;-81
2022/02/20 01:23:28;;;;;;;24.00;9.43;;;;;;;4.69;54.24;100685.94;126285;1098;104233;-81
2022/02/20 01:26:00;;;;;;;21.33;8.77;;;;;;;4.66;53.68;100688.34;126335;1099;104188;-82
2022/02/20 01:28:31;;;;;;;22.10;9.37;;;;;;;4.62;54.30;100695.02;126266;1099;104290;-82
2022/02/20 01:31:03;;;;;;;23.43;9.80;;;;;;;4.60;54.96;100707.04;126311;1099;104294;-82
2022/02/20 01:33:34;;;;;;;26.20;10.70;;;;;;;4.56;54.67;100705.03;126353;1099;104331;-81
2022/02/20 01:36:09;;;;;;;25.77;10.03;;;;;;;4.52;54.90;100707.34;126320;1099;104149;-82
2022/02/20 01:38:41;;;;;;;24.27;10.70;;;;;;;4.47;55.03;100715.77;126331;1099;104146;-81
2022/02/20 01:41:17;;;;;;;23.93;9.27;;;;;;;4.42;55.09;100705.88;126348;1098;104349;-82
2022/02/20 01:43:51;;;;;;;24.97;10.17;;;;;;;4.37;54.56;100712.48;126275;1099;104300;-81
2022/02/20 01:46:23;;;;;;;23.93;9.57;;;;;;;4.31;55.04;100716.47;126368;1099;104594;-81
2022/02/20 01:48:55;;;;;;;24.83;9.73;;;;;;;4.30;55.41;100711.17;126287;1099;104733;-81
2022/02/20 01:51:26;;;;;;;22.90;9.17;;;;;;;4.29;55.32;100715.48;126297;1099;104243;-81
2022/02/20 01:53:58;;;;;;;24.87;10.43;;;;;;;4.31;55.16;100712.98;126330;1099;104242;-81
2022/02/20 01:56:30;;;;;;;23.47;10.30;;;;;;;4.30;54.82;100714.69;126219;1099;104293;-81
2022/02/20 01:59:02;;;;;;;24.30;10.50;;;;;;;4.31;55.25;100710.38;126297;1099;104143;-81
2022/02/20 02:01:50;;;;;;;23.33;9.17;;;;;;;4.28;55.72;100718.87;126268;1099;104309;-81
2022/02/20 02:04:37;;;;;;;19.67;8.90;;;;;;;4.21;56.54;100716.70;126281;1098;104269;-81
2022/02/20 02:07:12;;;;;;;23.73;9.97;;;;;;;4.17;55.41;100719.88;126353;1098;104162;-81
2022/02/20 02:09:57;;;;;;;24.10;10.00;;;;;;;4.14;55.93;100724.87;126268;1099;105174;-81
2022/02/20 02:12:37;;;;;;;21.13;9.50;;;;;;;4.09;55.90;100729.77;126396;1099;104194;-81
2022/02/20 02:15:21;;;;;;;22.60;9.87;;;;;;;4.06;55.71;100731.28;126349;1099;104239;-80
2022/02/20 02:18:09;;;;;;;24.23;9.17;;;;;;;4.03;55.64;100729.38;126338;1099;104149;-81
2022/02/20 02:21:06;;;;;;;26.40;9.67;;;;;;;4.04;55.91;100727.69;125900;1099;119864;-82
2022/02/20 02:23:57;;;;;;;24.40;9.63;;;;;;;4.04;55.39;100738.97;126317;1099;104146;-81
2022/02/20 02:26:51;;;;;;;23.10;9.53;;;;;;;4.07;56.05;100733.98;126355;1099;104166;-81
2022/02/20 02:29:36;;;;;;;22.10;9.10;;;;;;;4.10;55.73;100741.97;126302;1099;104149;-81
2022/02/20 02:32:09;;;;;;;23.23;9.73;;;;;;;4.11;56.26;100735.98;126376;1099;104146;-82
2022/02/20 02:34:41;;;;;;;18.37;7.90;;;;;;;4.15;55.89;100742.27;126281;1099;104216;-81
2022/02/20 02:37:13;;;;;;;23.10;8.80;;;;;;;4.16;56.25;100741.48;126231;1099;104326;-81
2022/02/20 02:39:45;;;;;;;22.23;8.57;;;;;;;4.18;56.27;100741.58;126187;1099;104179;-81
2022/02/20 02:42:17;;;;;;;19.70;8.53;;;;;;;4.18;56.01;100745.06;126256;1099;104207;-81
2022/02/20 02:44:49;;;;;;;18.33;7.60;;;;;;;4.16;56.21;100748.35;126258;1099;104409;-81
2022/02/20 02:47:21;;;;;;;22.37;8.60;;;;;;;4.14;56.02;100745.66;126229;1099;104146;-81
2022/02/20 02:49:52;;;;;;;21.20;8.00;;;;;;;4.10;55.53;100749.77;126176;1099;104344;-83
2022/02/20 02:52:24;;;;;;;22.57;8.53;;;;;;;4.08;55.64;100751.37;125442;1099;104303;-81
2022/02/20 02:54:55;;;;;;;19.50;8.13;;;;;;;4.04;55.61;100749.36;126245;1099;104313;-81
2022/02/20 02:57:27;;;;;;;19.47;8.00;;;;;;;4.03;55.97;100757.05;126196;1099;104204;-81
2022/02/20 02:59:59;;;;;;;22.63;8.40;;;;;;;4.02;55.92;100757.83;126200;1098;104398;-81
2022/02/20 03:02:31;;;;;;;22.00;8.27;;;;;;;4.00;55.88;100749.94;126189;1099;104248;-80
2022/02/20 03:05:03;;;;;;;21.53;8.10;;;;;;;3.98;56.32;100750.66;126231;1099;104476;-82
2022/02/20 03:07:36;;;;;;;20.55;7.53;;;;;;;3.96;56.62;100754.05;126247;1099;104156;-80
2022/02/20 03:10:08;;;;;;;18.67;7.93;;;;;;;3.96;55.96;100755.75;126301;1096;104162;-82
2022/02/20 03:12:41;;;;;;;20.60;8.50;;;;;;;3.93;55.98;100748.64;126385;1099;104245;-80
2022/02/20 03:15:13;;;;;;;19.63;8.23;;;;;;;3.93;56.42;100755.55;126286;1099;104312;-81
2022/02/20 03:17:46;;;;;;;16.80;7.60;;;;;;;3.91;56.59;100770.10;126372;1099;104156;-82
2022/02/20 03:20:17;;;;;;;22.30;8.40;;;;;;;3.87;56.68;100768.13;126320;1098;104201;-82
2022/02/20 03:22:49;;;;;;;21.17;7.63;;;;;;;3.85;56.39;100765.42;126421;1096;104152;-81
2022/02/20 03:25:22;;;;;;;18.90;7.47;;;;;;;3.84;56.82;100763.61;126346;1099;104143;-81
2022/02/20 03:27:55;;;;;;;18.02;7.85;;;;;;;3.84;55.90;100758.42;126263;1097;104134;-80
2022/02/20 03:30:31;;;;;;;20.30;7.70;;;;;;;3.85;56.62;100768.02;126257;1099;104178;-81
2022/02/20 03:33:03;;;;;;;21.17;7.67;;;;;;;3.85;56.42;100770.61;126258;1099;104316;-80
2022/02/20 03:35:35;;;;;;;20.60;7.37;;;;;;;3.88;57.13;100770.81;126387;1099;104166;-81
2022/02/20 03:38:08;;;;;;;20.40;6.47;;;;;;;3.89;56.22;100763.92;126393;1099;104249;-81
2022/02/20 03:40:41;;;;;;;18.75;6.97;;;;;;;3.91;56.82;100778.81;126290;1096;104195;-81
2022/02/20 03:43:13;;;;;;;17.33;7.13;;;;;;;3.93;56.61;100776.31;126312;1099;104246;-81
2022/02/20 03:46:05;;;;;;;18.10;6.97;;;;;;;3.93;56.51;100774.61;126347;1099;104213;-81
2022/02/20 03:48:47;;;;;;;18.77;7.13;;;;;;;3.98;56.79;100774.03;126318;1099;104242;-81
2022/02/20 03:51:25;;;;;;;19.57;7.13;;;;;;;3.97;56.41;100773.11;126219;1099;104169;-82
2022/02/20 03:53:57;;;;;;;17.33;6.90;;;;;;;3.98;56.30;100768.84;126332;1099;104159;-81
2022/02/20 03:56:28;;;;;;;17.67;7.50;;;;;;;3.99;56.68;100771.53;126335;1099;104174;-82
2022/02/20 03:59:00;;;;;;;19.37;7.90;;;;;;;4.01;56.67;100777.72;126250;1099;104188;-82
2022/02/20 04:01:31;;;;;;;21.53;6.97;;;;;;;4.05;56.42;100774.54;126293;1099;104252;-82
2022/02/20 04:04:03;;;;;;;20.80;7.50;;;;;;;4.11;55.96;100776.62;126294;1099;104368;-81
2022/02/20 04:06:34;;;;;;;17.73;7.30;;;;;;;4.14;56.47;100780.34;126345;1099;104616;-81
2022/02/20 04:09:12;;;;;;;17.77;6.83;;;;;;;4.16;56.60;100784.72;126323;1099;104214;-82
2022/02/20 04:11:43;;;;;;;18.37;7.03;;;;;;;4.17;56.78;100790.02;126263;1099;104238;-82
2022/02/20 04:14:29;;;;;;;22.80;7.80;;;;;;;4.18;56.21;100790.93;126338;1099;104615;-82
2022/02/20 04:17:09;;;;;;;17.03;6.90;;;;;;;4.17;56.68;100792.61;126386;1099;104361;-82
2022/02/20 04:19:43;;;;;;;17.77;7.30;;;;;;;4.15;57.01;100789.02;126336;1099;104152;-81
2022/02/20 04:22:15;;;;;;;18.87;6.90;;;;;;;4.15;56.40;100796.81;126320;1099;104166;-82
2022/02/20 04:24:47;;;;;;;18.33;6.87;;;;;;;4.12;55.85;100796.61;126247;1099;104166;-81
2022/02/20 04:27:19;;;;;;;19.17;6.93;;;;;;;4.08;56.43;100792.92;126294;1099;104277;-81
2022/02/20 04:29:50;;;;;;;20.03;7.27;;;;;;;4.05;56.00;100794.39;126330;1099;104252;-81
2022/02/20 04:32:22;;;;;;;18.40;6.97;;;;;;;4.04;56.43;100790.91;126255;1097;104271;-81
2022/02/20 04:34:56;;;;;;;16.55;6.72;;;;;;;4.05;56.98;100800.50;126339;1099;104140;-82
2022/02/20 04:37:27;;;;;;;17.60;6.63;;;;;;;4.07;56.38;100805.80;126269;1099;104188;-82
2022/02/20 04:40:00;;;;;;;17.50;7.15;;;;;;;4.06;56.19;100802.28;126329;1099;104259;-82
2022/02/20 04:42:34;;;;;;;17.63;6.87;;;;;;;4.05;56.76;100804.78;126242;1099;104179;-80
2022/02/20 04:45:11;;;;;;;20.80;7.27;;;;;;;4.09;56.57;100804.20;126336;1099;104201;-81
2022/02/20 04:47:46;;;;;;;19.07;7.23;;;;;;;4.12;56.64;100794.91;126308;1099;104252;-81
2022/02/20 04:50:21;;;;;;;19.77;7.17;;;;;;;4.14;56.68;100801.12;126233;1099;104319;-81
2022/02/20 04:53:01;;;;;;;20.13;7.37;;;;;;;4.15;57.10;100802.00;126188;1099;104168;-81
2022/02/20 04:55:38;;;;;;;18.60;6.77;;;;;;;4.17;56.27;100800.41;126227;1099;104351;-82
2022/02/20 04:58:11;;;;;;;16.87;6.77;;;;;;;4.20;56.62;100792.81;126191;1099;104181;-82
2022/02/20 05:00:45;;;;;;;17.73;6.70;;;;;;;4.22;56.27;100796.40;125364;1099;104297;-81
2022/02/20 05:03:17;;;;;;;15.00;6.23;;;;;;;4.24;56.13;100792.23;125282;1101;104249;-82
2022/02/20 05:05:57;;;;;;;18.60;7.00;;;;;;;4.25;56.66;100795.71;125288;1099;104178;-82
2022/02/20 05:08:49;;;;;;;20.53;7.57;;;;;;;4.28;56.75;100796.80;125283;1099;104300;-81
2022/02/20 05:11:27;;;;;;;17.30;6.60;;;;;;;4.32;56.80;100800.52;125264;1102;104191;-81
2022/02/20 05:14:02;;;;;;;18.33;6.77;;;;;;;4.32;56.14;100796.22;125260;1102;104402;-81
2022/02/20 05:16:34;;;;;;;17.43;6.70;;;;;;;4.36;55.97;100796.41;125295;1099;104249;-82
2022/02/20 05:19:09;;;;;;;19.07;8.10;;;;;;;4.39;56.36;100794.02;125320;1099;104182;-81
2022/02/20 05:21:46;;;;;;;16.43;6.53;;;;;;;4.44;56.61;100797.80;125252;1099;104319;-81
2022/02/20 05:24:18;;;;;;;18.17;6.93;;;;;;;4.48;56.70;100794.62;125189;1102;104277;-82
2022/02/20 05:26:50;;;;;;;20.97;7.13;;;;;;;4.51;56.26;100797.41;125229;1100;104175;-82
2022/02/20 05:29:22;;;;;;;18.10;6.77;;;;;;;4.55;56.70;100807.22;125398;1100;104709;-82
2022/02/20 05:31:56;;;;;;;17.10;6.40;;;;;;;4.58;56.69;100811.70;125455;1099;104192;-82
2022/02/20 05:34:32;;;;;;;17.27;6.67;;;;;;;4.60;56.58;100811.00;126155;1099;104300;-82
2022/02/20 05:37:07;;;;;;;18.05;6.58;;;;;;;4.64;56.75;100813.02;126296;1099;104242;-81
2022/02/20 05:39:44;;;;;;;17.65;6.90;;;;;;;4.70;56.74;100814.20;126370;1099;104429;-82
2022/02/20 05:42:16;;;;;;;19.37;7.20;;;;;;;4.73;56.66;100812.69;126325;1099;104143;-82
2022/02/20 05:44:53;;;;;;;17.53;7.00;;;;;;;4.77;56.76;100816.37;126267;1096;104143;-82
2022/02/20 05:47:34;;;;;;;18.13;6.80;;;;;;;4.79;56.14;100812.19;126320;1096;104345;-81
2022/02/20 05:50:10;;;;;;;17.87;6.90;;;;;;;4.81;56.23;100816.66;126315;1096;104277;-80
2022/02/20 05:52:42;;;;;;;23.27;7.77;;;;;;;4.84;56.87;100809.06;126294;1099;104261;-82
2022/02/20 05:55:15;;;;;;;19.55;7.50;;;;;;;4.89;56.12;100811.06;126265;1099;104198;-82
2022/02/20 05:57:49;;;;;;;21.67;7.73;;;;;;;4.92;56.54;100812.14;126317;1099;104166;-81
2022/02/20 06:00:26;;;;;;;22.83;7.83;;;;;;;4.97;56.49;100810.76;126170;1099;104171;-81
2022/02/20 06:03:00;;;;;;;22.23;7.87;;;;;;;5.03;55.93;100818.95;126223;1097;104192;-81
2022/02/20 06:05:53;;;;;;;;;;;;;;;5.10;56.18;100821.94;126174;1096;104598;-81
2022/02/20 06:08:43;;;;;;;22.97;9.10;;;;;;;5.15;56.14;100816.20;126197;1096;104245;-81
2022/02/20 06:11:23;;;;;;;23.63;9.40;;;;;;;5.21;55.90;100816.58;126234;1099;104169;-81
2022/02/20 06:14:06;;;;;;;24.80;9.33;;;;;;;5.26;56.31;100806.46;126220;1099;104166;-82
2022/02/20 06:16:46;;;;;;;22.57;9.07;;;;;;;5.33;55.99;100815.53;126144;1099;104318;-82
2022/02/20 06:19:30;;;;;;;23.75;9.40;;;;;;;5.42;55.87;100823.02;126285;1099;104149;-81
2022/02/20 06:22:26;;;;;;;26.17;9.60;;;;;;;5.51;56.39;100814.06;125669;1099;104791;-80
2022/02/20 06:25:33;;;;;;;27.10;9.90;;;;;;;5.62;56.02;100817.32;125899;1099;104329;-80
2022/02/20 06:28:14;;;;;;;23.93;9.63;;;;;;;5.70;56.32;100816.10;126139;1096;104143;-79
2022/02/20 06:30:45;;;;;;;19.63;8.97;;;;;;;5.81;56.61;100816.71;126344;1096;104290;-80
2022/02/20 06:33:27;;;;;;;24.27;9.80;;;;;;;5.91;56.35;100818.19;126323;1099;104195;-80
2022/02/20 06:36:01;;;;;;;30.37;10.80;;;;;;;5.98;56.09;100815.15;126333;1096;104214;-80
2022/02/20 06:38:34;;;;;;;22.73;10.03;;;;;;;6.06;56.26;100807.78;126307;1099;104187;-82
2022/02/20 06:41:09;;;;;;;25.20;10.15;;;;;;;6.14;56.16;100810.84;126306;1097;104281;-81
2022/02/20 06:43:45;;;;;;;25.17;9.63;;;;;;;6.20;55.97;100813.80;126249;1099;104725;-81
2022/02/20 06:46:37;;;;;;;24.93;9.50;;;;;;;6.28;56.09;100817.78;126196;1099;104220;-80
2022/02/20 06:49:47;;;;;;;27.70;11.03;;;;;;;6.36;55.79;100813.90;125195;1102;104155;-80
2022/02/20 06:52:37;;;;;;;27.27;11.57;;;;;;;6.45;55.95;100811.83;125263;1102;104354;-82
2022/02/20 06:55:24;;;;;;;28.50;12.70;;;;;;;6.54;55.87;100807.94;125897;1099;104177;-82
2022/02/20 06:58:10;;;;;;;28.60;11.70;;;;;;;6.63;56.00;100808.45;126303;1099;104274;-81
2022/02/20 07:00:42;;;;;;;30.63;12.50;;;;;;;6.69;55.79;100806.20;126325;1099;104283;-81
2022/02/20 07:03:13;;;;;;;44.50;15.70;;;;;;;6.75;55.93;100810.87;126274;1098;104309;-80
2022/02/20 07:05:44;;;;;;;40.13;16.97;;;;;;;6.79;56.12;100808.52;126329;1099;104162;-82
2022/02/20 07:08:16;;;;;;;38.97;17.13;;;;;;;6.83;56.00;100805.25;126341;1099;104306;-81
2022/02/20 07:10:47;;;;;;;38.80;18.75;;;;;;;6.89;55.90;100814.22;126286;1099;104265;-82
2022/02/20 07:13:18;;;;;;;36.90;18.33;;;;;;;6.94;55.75;100805.84;126402;1099;104153;-82
2022/02/20 07:15:50;;;;;;;46.57;21.37;;;;;;;6.99;56.02;100809.59;126276;1099;104189;-81
2022/02/20 07:18:22;;;;;;;42.33;19.90;;;;;;;7.06;55.92;100803.02;126368;1099;104172;-82
2022/02/20 07:20:53;;;;;;;44.87;20.17;;;;;;;7.13;55.91;100802.52;126296;1099;104162;-82
2022/02/20 07:23:26;;;;;;;46.40;21.33;;;;;;;7.24;56.13;100804.83;126302;1099;104296;-82
2022/02/20 07:25:57;;;;;;;41.93;20.20;;;;;;;7.32;56.05;100804.44;126200;1099;104172;-80
2022/02/20 07:28:29;;;;;;;42.50;19.57;;;;;;;7.43;55.61;100807.59;126138;1099;104259;-82
2022/02/20 07:31:00;;;;;;;42.33;19.97;;;;;;;7.52;55.50;100795.02;126197;1099;104290;-82
2022/02/20 07:33:31;;;;;;;47.53;20.93;;;;;;;7.66;55.90;100792.25;126139;1099;104172;-82
2022/02/20 07:36:03;;;;;;;42.80;21.00;;;;;;;7.79;55.54;100791.16;126138;1099;104287;-82
2022/02/20 07:38:34;;;;;;;39.87;19.30;;;;;;;7.93;55.86;100790.14;126224;1099;104322;-81
2022/02/20 07:41:06;;;;;;;34.27;15.20;;;;;;;8.06;55.20;100795.19;126205;1099;104325;-82
2022/02/20 07:43:39;;;;;;;33.33;11.73;;;;;;;8.21;55.34;100802.91;125446;1099;102029;-82
2022/02/20 07:46:10;;;;;;;27.47;10.23;;;;;;;8.33;55.05;100799.10;126187;1099;104316;-81
2022/02/20 07:48:45;;;;;;;23.83;8.80;;;;;;;8.47;55.02;100805.94;125392;1099;104277;-81
2022/02/20 07:51:16;;;;;;;30.40;11.07;;;;;;;8.59;54.57;100809.16;126217;1099;104425;-81
2022/02/20 07:53:48;;;;;;;41.27;19.83;;;;;;;8.66;54.09;100810.34;126234;1099;104302;-81
2022/02/20 07:56:20;;;;;;;36.80;17.97;;;;;;;8.70;54.27;100812.29;125400;1099;104418;-81
2022/02/20 07:58:51;;;;;;;38.00;17.07;;;;;;;8.71;54.15;100811.48;126350;1098;104239;-82
2022/02/20 08:01:23;;;;;;;34.57;16.93;;;;;;;8.77;53.94;100810.86;126194;1099;104238;-80
2022/02/20 08:03:54;;;;;;;36.93;16.50;;;;;;;8.80;54.40;100803.16;126273;1099;104185;-80
2022/02/20 08:06:26;;;;;;;34.17;15.63;;;;;;;8.84;53.90;100802.48;126262;1099;105965;-79
2022/02/20 08:09:01;;;;;;;34.17;15.70;;;;;;;8.92;54.47;100801.12;126306;1099;104245;-81
2022/02/20 08:11:33;;;;;;;39.57;15.80;;;;;;;8.99;53.77;100792.74;126350;1099;104140;-80
2022/02/20 08:14:05;;;;;;;31.50;13.97;;;;;;;9.12;54.23;100793.31;126325;1099;104201;-80
2022/02/20 08:16:36;;;;;;;27.33;11.90;;;;;;;9.24;53.81;100779.87;126295;1099;104271;-81
2022/02/20 08:19:08;;;;;;;27.03;10.53;;;;;;;9.32;53.13;100783.75;126281;1099;104634;-80
2022/02/20 08:21:39;;;;;;;27.37;9.97;;;;;;;9.38;52.72;100778.80;126369;1099;104149;-80
2022/02/20 08:24:12;;;;;;;25.92;9.98;;;;;;;9.49;52.47;100768.77;126373;1099;104160;-81
2022/02/20 08:26:45;;;;;;;21.83;9.30;;;;;;;9.55;52.31;100771.66;126245;1099;104242;-81
2022/02/20 08:29:21;;;;;;;;;;;;;;;9.67;50.70;100776.55;126335;1097;103938;-80
2022/02/20 08:31:55;;;;;;;20.63;7.70;;;;;;;9.83;51.67;100776.41;126365;1099;104159;-81
2022/02/20 08:34:26;;;;;;;18.00;6.70;;;;;;;9.95;51.67;100769.88;126357;1098;104201;-81
2022/02/20 08:36:57;;;;;;;14.17;5.03;;;;;;;10.05;51.06;100770.34;126323;1099;104146;-81
2022/02/20 08:39:29;;;;;;;11.20;3.87;;;;;;;10.18;51.28;100765.61;126303;1096;104172;-81
2022/02/20 08:42:01;;;;;;;13.73;3.87;;;;;;;10.27;51.04;100755.50;126297;1099;104268;-82
2022/02/20 08:44:34;;;;;;;8.50;3.40;;;;;;;10.33;50.17;100760.11;126320;1099;104242;-82
2022/02/20 08:47:06;;;;;;;10.80;3.85;;;;;;;10.40;50.47;100756.92;126309;1098;104607;-81
2022/02/20 08:49:38;;;;;;;11.83;3.47;;;;;;;10.50;49.90;100750.30;126333;1096;104144;-81
2022/02/20 08:52:11;;;;;;;9.03;3.67;;;;;;;10.58;49.62;100752.41;126214;1096;104139;-80
2022/02/20 08:54:43;;;;;;;7.73;3.30;;;;;;;10.70;49.69;100751.09;126277;1096;104157;-81
2022/02/20 08:57:14;;;;;;;7.30;2.97;;;;;;;10.79;48.58;100739.22;126230;1096;104746;-81
2022/02/20 08:59:46;;;;;;;7.97;3.20;;;;;;;10.87;47.96;100742.13;126405;1098;104194;-82
2022/02/20 09:02:17;;;;;;;7.00;2.97;;;;;;;10.96;48.22;100754.73;126352;1099;104358;-81
2022/02/20 09:04:49;;;;;;;9.70;3.37;;;;;;;10.96;47.41;100745.11;126337;1099;104194;-81
2022/02/20 09:07:20;;;;;;;8.60;3.57;;;;;;;11.04;47.14;100742.78;126300;1098;104255;-81
2022/02/20 09:09:52;;;;;;;10.35;3.75;;;;;;;11.14;47.52;100739.67;126342;1096;104245;-81
2022/02/20 09:12:23;;;;;;;8.70;3.60;;;;;;;11.21;46.93;100734.65;126347;1096;104183;-82
2022/02/20 09:14:55;;;;;;;8.70;3.70;;;;;;;11.20;46.95;100733.73;126148;1099;104229;-81
2022/02/20 09:17:27;;;;;;;9.83;3.77;;;;;;;11.17;46.39;100722.23;126216;1096;104290;-80
2022/02/20 09:19:58;;;;;;;10.73;3.70;;;;;;;11.14;46.59;100726.54;126262;1099;104137;-80
2022/02/20 09:22:29;;;;;;;11.03;3.73;;;;;;;11.19;46.38;100733.67;126310;1099;104264;-81
2022/02/20 09:25:01;;;;;;;8.67;3.73;;;;;;;11.22;45.81;100731.16;126366;1099;104319;-80
2022/02/20 09:27:34;;;;;;;11.00;3.80;;;;;;;11.25;46.13;100715.51;126336;1099;104226;-80
2022/02/20 09:30:07;;;;;;;9.70;3.43;;;;;;;11.19;44.47;100715.29;126301;1096;104171;-81
2022/02/20 09:32:39;;;;;;;8.73;3.30;;;;;;;11.14;44.76;100707.23;126342;1099;104210;-81
2022/02/20 09:35:11;;;;;;;9.20;3.37;;;;;;;11.17;45.39;100706.47;126317;1096;104252;-81
2022/02/20 09:37:43;;;;;;;10.03;3.50;;;;;;;11.24;44.82;100712.00;126382;1096;104136;-81
2022/02/20 09:40:14;;;;;;;10.40;3.53;;;;;;;11.32;43.96;100693.89;126331;1099;118609;-81
2022/02/20 09:42:47;;;;;;;7.83;3.37;;;;;;;11.33;43.96;100688.69;126334;1098;104293;-82
2022/02/20 09:45:18;;;;;;;11.20;3.43;;;;;;;11.39;43.72;100689.73;126367;1099;104265;-81
2022/02/20 09:47:49;;;;;;;7.03;3.43;;;;;;;11.41;44.09;100686.34;126347;1099;104197;-81
2022/02/20 09:50:21;;;;;;;9.43;3.63;;;;;;;11.46;43.66;100684.75;126305;1099;104217;-81
2022/02/20 09:52:52;;;;;;;10.57;3.50;;;;;;;11.47;43.15;100678.67;126329;1099;104207;-82
2022/02/20 09:55:24;;;;;;;8.37;3.20;;;;;;;11.48;42.43;100672.59;126347;1099;104178;-82
2022/02/20 09:57:56;;;;;;;8.30;2.93;;;;;;;11.49;41.99;100669.09;126346;1099;104606;-81
2022/02/20 10:00:28;;;;;;;6.50;2.73;;;;;;;11.41;39.97;100667.95;126270;1099;104144;-81
2022/02/20 10:03:02;;;;;;;5.63;2.73;;;;;;;11.43;41.72;100658.38;126156;1098;104147;-81
2022/02/20 10:05:34;;;;;;;9.40;3.10;;;;;;;11.47;41.07;100664.65;126303;1099;104245;-82
2022/02/20 10:08:20;;;;;;;9.93;3.60;;;;;;;11.59;41.76;100653.64;126268;1099;104146;-81
2022/02/20 10:10:52;;;;;;;10.47;3.80;;;;;;;11.62;41.11;100649.38;126264;1099;104267;-79
2022/02/20 10:13:30;;;;;;;10.50;3.77;;;;;;;11.65;40.77;100648.59;126304;1099;104194;-79
2022/02/20 10:16:19;;;;;;;10.27;3.17;;;;;;;11.66;40.14;100646.02;126361;1099;104261;-82
2022/02/20 10:19:06;;;;;;;8.23;3.50;;;;;;;11.65;40.45;100635.45;126325;1099;105598;-81
2022/02/20 10:22:24;;;;;;;8.47;3.20;;;;;;;11.58;39.84;100625.59;125280;1102;104296;-81
2022/02/20 10:25:18;;;;;;;7.43;3.00;;;;;;;11.57;39.23;100626.43;126362;1099;104187;-80
2022/02/20 10:28:22;;;;;;;10.40;3.30;;;;;;;11.58;39.13;100615.08;126352;1097;104230;-80
2022/02/20 10:30:58;;;;;;;8.67;2.80;;;;;;;11.63;39.12;100616.13;126321;1099;104220;-81
2022/02/20 10:33:29;;;;;;;7.20;3.00;;;;;;;11.66;39.32;100613.59;126360;1099;104376;-81
2022/02/20 10:36:00;;;;;;;8.00;3.43;;;;;;;11.72;39.38;100620.77;126341;1097;104216;-80
2022/02/20 10:38:38;;;;;;;7.73;2.87;;;;;;;11.73;39.44;100607.67;126317;1099;104239;-82
2022/02/20 10:41:10;;;;;;;10.20;3.00;;;;;;;11.79;39.35;100610.50;126256;1099;104130;-81
2022/02/20 10:43:42;;;;;;;5.83;2.73;;;;;;;11.83;39.34;100611.52;126382;1096;104141;-81
2022/02/20 10:46:16;;;;;;;8.00;2.60;;;;;;;11.78;38.28;100608.74;126373;1098;104169;-81
2022/02/20 10:48:49;;;;;;;7.63;3.00;;;;;;;11.76;38.77;100606.89;126326;1096;104303;-80
2022/02/20 10:51:22;;;;;;;9.60;3.67;;;;;;;11.77;38.29;100598.17;126320;1099;104239;-81
2022/02/20 10:53:54;;;;;;;9.47;3.60;;;;;;;11.76;37.62;100601.63;126355;1099;104239;-80
2022/02/20 10:56:40;;;;;;;8.43;2.83;;;;;;;11.72;37.56;100592.77;126368;1099;104137;-80
2022/02/20 10:59:13;;;;;;;8.00;3.03;;;;;;;11.73;38.20;100585.77;126335;1099;104263;-81
2022/02/20 11:01:44;;;;;;;7.70;2.80;;;;;;;11.79;37.57;100580.70;126302;1099;104370;-80
2022/02/20 11:04:16;;;;;;;7.90;3.37;;;;;;;11.77;37.37;100579.77;126336;1099;104269;-81
2022/02/20 11:06:48;;;;;;;7.10;2.80;;;;;;;11.81;37.81;100566.77;126307;1099;104223;-80
2022/02/20 11:09:20;;;;;;;8.80;3.00;;;;;;;11.84;37.12;100572.13;126339;1099;104140;-80
2022/02/20 11:11:52;;;;;;;6.70;2.60;;;;;;;11.86;36.57;100562.55;126327;1099;104286;-81
2022/02/20 11:14:24;;;;;;;7.80;2.77;;;;;;;11.84;36.22;100566.88;126341;1099;104165;-80
2022/02/20 11:16:56;;;;;;;6.47;2.50;;;;;;;11.87;35.97;100550.28;126357;1099;104134;-81
2022/02/20 11:19:32;;;;;;;8.90;2.90;;;;;;;11.85;36.62;100550.23;126350;1099;104222;-81
2022/02/20 11:22:05;;;;;;;7.60;2.67;;;;;;;11.89;36.53;100548.61;126299;1096;104246;-81
2022/02/20 11:24:38;;;;;;;7.25;2.87;;;;;;;11.91;36.49;100540.77;126342;1099;104149;-81
2022/02/20 11:27:14;;;;;;;7.20;2.80;;;;;;;11.92;36.07;100534.64;126327;1096;104137;-81
2022/02/20 11:29:45;;;;;;;9.97;3.20;;;;;;;11.87;36.03;100529.25;126351;1096;104560;-79
2022/02/20 11:32:17;;;;;;;8.73;2.70;;;;;;;11.82;35.68;100534.36;126252;1099;104272;-80
2022/02/20 11:34:51;;;;;;;8.07;2.93;;;;;;;11.88;36.15;100531.05;126354;1097;104285;-80
2022/02/20 11:37:44;;;;;;;7.67;3.00;;;;;;;11.87;36.18;100527.53;126340;1099;104380;-81
2022/02/20 11:40:18;;;;;;;9.77;3.20;;;;;;;11.91;36.11;100525.88;126291;1099;104381;-81
2022/02/20 11:43:11;;;;;;;8.58;3.02;;;;;;;11.76;33.54;100512.25;126341;1099;104143;-79